Time;durP1;ratioP1;P1;durP2;ratioP2;P2;SDS_P1;SDS_P2;PMS_P1;PMS_P2;Temp;Humidity;BMP_temperature;BMP_pressure;BME280_temperature;BME280_humidity;BME280_pressure;Samples;Min_cycle;Max_cycle;Signal;HPM_P1;HPM_P2
2023/08/12 00:01:25;;;;;;;5.10;3.20;;;;;;;20.52;66.97;100535.08;107865;1258;72299;-64
2023/08/12 00:03:53;;;;;;;5.00;3.20;;;;;;;20.51;66.91;100532.23;108361;1256;71588;-65
2023/08/12 00:06:21;;;;;;;5.60;3.60;;;;;;;20.50;66.78;100536.89;108880;1260;71442;-64
2023/08/12 00:08:49;;;;;;;5.80;3.70;;;;;;;20.50;66.56;100539.27;107895;1257;61654;-64
2023/08/12 00:11:16;;;;;;;6.80;3.70;;;;;;;20.50;66.46;100538.41;107552;1256;60624;-64
2023/08/12 00:13:44;;;;;;;5.40;3.40;;;;;;;20.50;66.18;100533.58;108048;1257;73949;-64
2023/08/12 00:16:12;;;;;;;5.30;3.50;;;;;;;20.50;65.95;100531.63;108602;1257;73165;-64
2023/08/12 00:18:40;;;;;;;4.80;3.40;;;;;;;20.49;65.74;100527.80;107563;1257;71456;-64
2023/08/12 00:21:09;;;;;;;5.70;3.50;;;;;;;20.49;65.72;100527.78;107711;1260;60456;-66
2023/08/12 00:23:39;;;;;;;5.10;3.40;;;;;;;20.47;65.62;100523.10;107702;1257;60511;-66
2023/08/12 00:26:08;;;;;;;8.00;3.60;;;;;;;20.48;65.40;100520.48;107603;1256;72571;-66
2023/08/12 00:28:36;;;;;;;5.50;3.60;;;;;;;20.47;65.42;100521.45;107771;1257;73108;-65
2023/08/12 00:31:04;;;;;;;5.10;3.40;;;;;;;20.46;65.44;100516.64;107721;1257;72694;-65
2023/08/12 00:33:33;;;;;;;7.20;3.80;;;;;;;20.44;65.33;100518.50;107678;1262;61674;-67
2023/08/12 00:36:00;;;;;;;5.00;3.50;;;;;;;20.41;65.44;100517.70;107519;1262;61121;-66
2023/08/12 00:38:28;;;;;;;4.90;3.20;;;;;;;20.38;65.41;100521.94;107622;1256;73870;-67
2023/08/12 00:40:57;;;;;;;5.90;3.70;;;;;;;20.37;65.39;100526.63;107661;1257;73146;-66
2023/08/12 00:43:25;;;;;;;6.30;3.70;;;;;;;20.35;65.42;100529.48;107721;1257;71397;-65
2023/08/12 00:45:53;;;;;;;5.50;3.80;;;;;;;20.39;65.28;100525.61;107519;1257;62561;-64
2023/08/12 00:48:21;;;;;;;9.40;4.20;;;;;;;20.34;65.40;100532.86;107560;1256;60321;-65
2023/08/12 00:50:49;;;;;;;5.70;3.60;;;;;;;20.30;65.58;100535.88;107509;1256;72910;-65
2023/08/12 00:53:16;;;;;;;5.80;4.00;;;;;;;20.27;65.99;100540.54;107598;1257;71510;-65
2023/08/12 00:55:44;;;;;;;6.40;3.60;;;;;;;20.25;66.01;100534.48;107712;1260;71841;-66
2023/08/12 00:58:12;;;;;;;6.10;3.60;;;;;;;20.33;65.76;100530.92;107642;1257;61726;-65
2023/08/12 01:00:41;;;;;;;6.80;4.10;;;;;;;20.26;65.54;100524.74;107660;1257;60406;-65
2023/08/12 01:03:09;;;;;;;8.60;3.80;;;;;;;20.17;65.59;100526.66;107495;1257;73854;-65
2023/08/12 01:05:37;;;;;;;6.50;4.00;;;;;;;20.10;65.69;100528.25;107771;1257;71642;-66
2023/08/12 01:08:09;;;;;;;4.60;3.60;;;;;;;20.04;65.83;100527.15;107624;1258;71466;-66
2023/08/12 01:10:39;;;;;;;5.40;3.90;;;;;;;20.01;65.90;100527.63;107804;1256;63738;-66
2023/08/12 01:13:25;;;;;;;7.70;4.10;;;;;;;19.94;65.89;100535.16;107480;1257;60566;-65
2023/08/12 01:15:53;;;;;;;5.90;4.10;;;;;;;19.86;65.93;100538.35;107630;1257;73909;-65
2023/08/12 01:18:21;;;;;;;7.50;4.30;;;;;;;19.79;66.14;100534.81;107705;1257;72902;-67
2023/08/12 01:20:49;;;;;;;5.60;4.00;;;;;;;19.74;66.48;100536.66;107568;1256;72680;-66
2023/08/12 01:23:17;;;;;;;5.80;4.10;;;;;;;19.69;66.49;100543.01;107547;1258;60470;-67
2023/08/12 01:25:44;;;;;;;6.00;4.40;;;;;;;19.65;66.61;100537.73;107707;1262;60380;-64
2023/08/12 01:28:12;;;;;;;6.20;4.40;;;;;;;19.63;66.67;100534.91;107450;1258;73979;-65
2023/08/12 01:31:02;;;;;;;5.70;4.10;;;;;;;19.63;66.71;100537.69;107690;1257;72887;-65
2023/08/12 01:33:35;;;;;;;5.80;4.10;;;;;;;19.61;66.93;100537.45;107706;1257;72763;-66
2023/08/12 01:36:14;;;;;;;6.50;4.30;;;;;;;19.60;67.11;100535.05;107515;1257;60470;-65
2023/08/12 01:38:42;;;;;;;6.10;4.20;;;;;;;19.58;67.17;100538.23;107825;1257;58994;-66
2023/08/12 01:41:10;;;;;;;6.80;4.60;;;;;;;19.54;67.10;100538.38;107416;1257;72793;-64
2023/08/12 01:43:39;;;;;;;5.30;4.00;;;;;;;19.51;67.13;100533.05;107531;1257;71421;-66
2023/08/12 01:46:06;;;;;;;6.60;4.40;;;;;;;19.36;67.06;100529.17;107819;1257;71704;-64
2023/08/12 01:48:36;;;;;;;6.10;3.90;;;;;;;19.32;67.20;100527.89;107744;1259;60778;-64
2023/08/12 01:51:04;;;;;;;6.20;4.30;;;;;;;19.38;66.95;100524.88;107815;1257;59495;-65
2023/08/12 01:53:32;;;;;;;5.60;4.20;;;;;;;19.30;67.00;100523.45;107698;1257;75249;-65
2023/08/12 01:55:59;;;;;;;5.60;4.10;;;;;;;19.19;67.10;100522.14;107724;1257;72849;-67
2023/08/12 01:58:27;;;;;;;5.00;4.00;;;;;;;19.16;67.29;100517.03;107688;1259;74926;-66
2023/08/12 02:00:55;;;;;;;6.00;4.10;;;;;;;19.12;67.54;100520.42;107806;1259;61767;-65
2023/08/12 02:03:22;;;;;;;7.00;4.40;;;;;;;19.10;67.50;100519.59;107790;1257;60315;-66
2023/08/12 02:05:51;;;;;;;6.90;4.20;;;;;;;19.06;67.23;100521.89;107743;1257;73942;-69
2023/08/12 02:08:19;;;;;;;6.00;4.40;;;;;;;19.02;67.24;100527.06;107634;1257;71377;-66
2023/08/12 02:10:46;;;;;;;5.30;3.90;;;;;;;18.97;67.20;100529.79;107761;1258;74695;-66
2023/08/12 02:13:14;;;;;;;5.60;4.50;;;;;;;18.92;67.24;100532.32;107615;1257;61667;-66
2023/08/12 02:15:43;;;;;;;7.20;4.60;;;;;;;18.87;67.29;100537.92;107806;1256;60415;-64
2023/08/12 02:18:13;;;;;;;6.10;4.60;;;;;;;18.81;67.27;100538.04;107630;1257;71920;-64
2023/08/12 02:20:41;;;;;;;5.70;4.40;;;;;;;18.78;67.39;100541.20;107625;1257;73190;-64
2023/08/12 02:23:09;;;;;;;6.00;4.20;;;;;;;18.75;67.50;100538.13;107765;1256;72928;-65
2023/08/12 02:25:36;;;;;;;6.70;4.90;;;;;;;18.69;67.56;100540.23;107651;1257;61661;-65
2023/08/12 02:28:04;;;;;;;6.50;3.90;;;;;;;18.63;67.75;100540.73;107761;1257;60363;-65
2023/08/12 02:30:33;;;;;;;6.80;4.70;;;;;;;18.59;67.62;100540.18;107742;1257;72678;-65
2023/08/12 02:33:00;;;;;;;6.30;4.20;;;;;;;18.57;67.60;100539.80;107759;1257;71747;-65
2023/08/12 02:35:28;;;;;;;6.30;4.50;;;;;;;18.52;67.71;100538.67;107655;1256;71238;-65
2023/08/12 02:37:56;;;;;;;7.50;4.30;;;;;;;18.49;67.89;100537.45;107515;1257;60499;-65
2023/08/12 02:40:24;;;;;;;6.80;4.40;;;;;;;18.36;68.11;100543.57;107696;1257;60450;-66
2023/08/12 02:42:52;;;;;;;7.70;4.60;;;;;;;17.86;69.61;100546.89;107809;1257;72936;-67
2023/08/12 02:45:19;;;;;;;5.20;4.20;;;;;;;17.74;70.16;100543.63;107781;1257;72794;-64
2023/08/12 02:47:47;;;;;;;7.50;5.00;;;;;;;17.70;70.65;100547.84;107755;1259;71352;-65
2023/08/12 02:50:15;;;;;;;6.00;4.40;;;;;;;17.67;71.01;100547.24;107642;1257;61615;-65
2023/08/12 02:52:43;;;;;;;6.60;5.10;;;;;;;17.65;71.32;100550.21;107824;1258;60732;-65
2023/08/12 02:55:12;;;;;;;6.80;4.70;;;;;;;17.65;71.52;100550.12;107762;1257;72674;-66
2023/08/12 02:57:40;;;;;;;7.80;4.50;;;;;;;17.65;71.63;100553.36;107654;1257;71921;-66
2023/08/12 03:00:08;;;;;;;7.70;4.60;;;;;;;17.65;71.76;100546.98;107670;1257;72320;-67
2023/08/12 03:02:37;;;;;;;5.50;4.50;;;;;;;17.63;71.91;100545.94;107730;1259;60336;-65
2023/08/12 03:05:06;;;;;;;6.90;4.90;;;;;;;17.61;71.98;100547.99;107652;1257;60601;-64
2023/08/12 03:07:34;;;;;;;7.30;4.80;;;;;;;17.60;72.06;100546.27;107733;1258;74865;-65
2023/08/12 03:10:02;;;;;;;7.50;5.10;;;;;;;17.62;72.09;100545.20;107586;1257;72904;-64
2023/08/12 03:12:29;;;;;;;6.40;5.30;;;;;;;17.64;72.33;100544.99;107707;1256;73213;-66
2023/08/12 03:14:57;;;;;;;6.30;5.40;;;;;;;17.63;72.31;100545.78;107714;1259;60570;-65
2023/08/12 03:17:25;;;;;;;7.90;5.20;;;;;;;17.66;72.42;100544.84;107735;1257;60714;-65
2023/08/12 03:19:54;;;;;;;7.20;5.20;;;;;;;17.68;72.50;100548.09;107822;1257;72339;-65
2023/08/12 03:22:22;;;;;;;6.70;5.50;;;;;;;17.70;72.43;100548.80;107736;1257;72857;-66
2023/08/12 03:24:50;;;;;;;7.10;5.40;;;;;;;17.72;72.51;100550.75;107745;1260;71861;-64
2023/08/12 03:27:17;;;;;;;6.50;5.10;;;;;;;17.72;72.53;100553.35;107833;1257;60525;-66
2023/08/12 03:29:46;;;;;;;6.60;5.50;;;;;;;17.69;72.58;100553.48;107773;1258;60076;-64
2023/08/12 03:32:14;;;;;;;8.70;5.70;;;;;;;17.67;72.70;100556.38;107750;1257;73871;-65
2023/08/12 03:34:42;;;;;;;6.20;5.10;;;;;;;17.65;72.70;100556.42;107482;1256;426763;-67
2023/08/12 03:37:12;;;;;;;8.00;5.80;;;;;;;17.66;72.82;100558.58;107741;1257;71788;-66
2023/08/12 03:39:40;;;;;;;6.30;5.30;;;;;;;17.63;72.73;100564.63;107717;1257;61706;-65
2023/08/12 03:42:08;;;;;;;8.10;5.90;;;;;;;17.63;73.05;100565.70;107691;1256;60615;-66
2023/08/12 03:44:37;;;;;;;6.30;5.70;;;;;;;17.63;73.01;100566.52;107576;1257;71658;-65
2023/08/12 03:47:05;;;;;;;7.60;5.50;;;;;;;17.64;73.18;100567.63;107814;1257;70621;-65
2023/08/12 03:49:35;;;;;;;7.80;5.20;;;;;;;17.67;73.18;100570.59;107728;1259;71670;-67
2023/08/12 03:52:03;;;;;;;7.10;5.50;;;;;;;17.68;73.13;100567.06;107829;1256;61786;-66
2023/08/12 03:54:31;;;;;;;7.00;5.60;;;;;;;17.70;73.20;100575.16;107786;1256;60397;-66
2023/08/12 03:57:00;;;;;;;8.80;6.50;;;;;;;17.68;73.11;100574.88;107754;1257;72709;-65
2023/08/12 03:59:28;;;;;;;6.70;5.30;;;;;;;17.66;72.96;100580.98;107675;1257;71940;-67
2023/08/12 04:01:57;;;;;;;8.10;5.90;;;;;;;17.65;72.99;100575.07;107623;1257;72447;-66
2023/08/12 04:04:25;;;;;;;8.70;5.80;;;;;;;17.65;72.89;100572.36;107726;1259;60581;-66
2023/08/12 04:06:52;;;;;;;8.20;6.40;;;;;;;17.66;72.97;100572.98;107826;1257;62207;-66
2023/08/12 04:09:20;;;;;;;6.90;6.20;;;;;;;17.70;73.03;100568.63;107655;1256;73936;-65
2023/08/12 04:11:48;;;;;;;8.50;5.90;;;;;;;17.76;73.20;100566.95;107747;1256;71471;-65
2023/08/12 04:14:16;;;;;;;7.20;5.50;;;;;;;17.84;73.30;100565.54;107699;1259;71576;-65
2023/08/12 04:16:44;;;;;;;7.20;6.50;;;;;;;17.91;73.10;100563.91;107662;1257;61668;-65
2023/08/12 04:19:12;;;;;;;7.70;6.20;;;;;;;17.96;72.91;100565.25;107768;1257;60341;-66
2023/08/12 04:21:41;;;;;;;6.60;5.90;;;;;;;18.01;72.81;100564.11;107749;1257;72227;-65
2023/08/12 04:24:09;;;;;;;7.60;6.30;;;;;;;18.04;72.57;100563.77;107592;1258;71475;-66
2023/08/12 04:26:37;;;;;;;6.50;5.80;;;;;;;18.10;72.58;100565.73;107740;1259;72793;-64
2023/08/12 04:29:05;;;;;;;6.60;5.90;;;;;;;18.17;72.50;100567.58;107726;1259;60468;-66
2023/08/12 04:31:33;;;;;;;8.60;6.70;;;;;;;18.26;72.46;100566.64;107649;1256;59652;-66
2023/08/12 04:34:02;;;;;;;7.10;6.20;;;;;;;18.33;72.21;100565.89;107747;1256;73219;-67
2023/08/12 04:36:31;;;;;;;8.00;6.20;;;;;;;18.38;71.87;100552.95;107758;1257;72936;-65
2023/08/12 04:39:00;;;;;;;7.40;6.20;;;;;;;18.42;71.56;100554.56;107701;1257;77476;-65
2023/08/12 04:41:28;;;;;;;7.80;6.20;;;;;;;18.48;71.62;100555.93;107688;1256;60429;-65
2023/08/12 04:43:56;;;;;;;7.60;6.10;;;;;;;18.57;71.69;100552.36;107829;1256;60273;-65
2023/08/12 04:46:26;;;;;;;7.10;6.00;;;;;;;18.67;71.44;100550.99;107877;1256;73896;-64
2023/08/12 04:48:55;;;;;;;7.00;6.00;;;;;;;18.75;71.24;100553.19;107849;1256;71359;-66
2023/08/12 04:51:23;;;;;;;8.20;6.20;;;;;;;18.84;70.99;100555.83;107753;1257;72695;-65
2023/08/12 04:53:50;;;;;;;7.20;5.80;;;;;;;18.93;70.81;100558.17;107641;1257;60576;-65
2023/08/12 04:56:18;;;;;;;7.40;6.00;;;;;;;19.03;70.50;100556.98;107680;1257;60184;-64
2023/08/12 04:58:46;;;;;;;9.00;6.10;;;;;;;19.16;70.54;100560.19;107713;1256;74503;-63
2023/08/12 05:01:14;;;;;;;11.00;6.80;;;;;;;19.29;70.26;100557.94;107738;1256;71486;-64
2023/08/12 05:03:42;;;;;;;6.70;5.90;;;;;;;19.41;69.80;100556.49;107761;1256;72788;-64
2023/08/12 05:06:10;;;;;;;7.50;5.80;;;;;;;19.51;69.12;100551.80;107754;1259;62580;-65
2023/08/12 05:08:38;;;;;;;8.30;6.40;;;;;;;19.60;68.27;100548.23;107673;1257;62782;-64
2023/08/12 05:11:05;;;;;;;7.10;5.60;;;;;;;19.65;67.67;100549.83;107724;1256;73836;-69
2023/08/12 05:13:34;;;;;;;7.40;6.10;;;;;;;19.72;67.19;100554.77;107808;1257;71660;-66
2023/08/12 05:16:04;;;;;;;7.10;6.00;;;;;;;19.77;66.33;100544.92;107711;1257;72744;-66
2023/08/12 05:18:31;;;;;;;7.10;5.60;;;;;;;19.80;66.00;100546.39;107726;1257;60500;-66
2023/08/12 05:20:59;;;;;;;6.80;6.10;;;;;;;19.86;66.02;100543.77;107649;1256;60343;-65
2023/08/12 05:23:27;;;;;;;10.20;6.60;;;;;;;19.93;65.69;100550.34;107703;1257;71819;-65
2023/08/12 05:25:55;;;;;;;7.90;5.70;;;;;;;20.02;65.39;100549.81;107594;1257;73105;-66
2023/08/12 05:28:23;;;;;;;8.50;5.60;;;;;;;20.13;65.48;100549.91;107734;1257;73200;-68
2023/08/12 05:30:50;;;;;;;7.50;5.80;;;;;;;20.26;65.12;100553.10;107646;1259;60463;-66
2023/08/12 05:33:18;;;;;;;7.00;5.90;;;;;;;20.37;64.85;100552.48;107775;1256;60307;-66
2023/08/12 05:35:50;;;;;;;6.90;6.00;;;;;;;20.47;64.62;100551.21;107669;1257;73933;-64
2023/08/12 05:38:17;;;;;;;8.40;5.80;;;;;;;20.52;63.99;100543.36;107622;1257;71919;-65
2023/08/12 05:40:45;;;;;;;6.40;5.70;;;;;;;20.57;63.59;100542.44;107652;1257;70885;-65
2023/08/12 05:43:13;;;;;;;7.00;5.70;;;;;;;20.66;63.37;100546.80;107722;1257;60466;-66
2023/08/12 05:45:40;;;;;;;7.70;5.70;;;;;;;20.72;63.60;100543.98;107649;1257;60267;-66
2023/08/12 05:48:08;;;;;;;8.10;6.10;;;;;;;20.84;63.36;100549.64;107543;1256;72668;-67
2023/08/12 05:50:36;;;;;;;7.40;6.30;;;;;;;20.99;62.96;100545.77;107707;1257;72912;-67
2023/08/12 05:53:03;;;;;;;9.10;6.50;;;;;;;21.28;61.99;100543.94;107695;1256;72749;-65
2023/08/12 05:55:34;;;;;;;8.30;5.70;;;;;;;21.39;61.45;100544.77;107752;1257;60473;-65
2023/08/12 05:58:02;;;;;;;6.20;5.50;;;;;;;21.47;60.75;100549.06;107639;1257;60345;-65
2023/08/12 06:00:30;;;;;;;7.60;5.60;;;;;;;21.57;60.50;100547.84;107699;1256;73814;-66
2023/08/12 06:02:58;;;;;;;7.70;5.60;;;;;;;21.59;59.66;100542.33;107655;1256;72782;-66
2023/08/12 06:05:25;;;;;;;9.00;5.60;;;;;;;21.67;59.75;100538.92;107641;1258;71498;-67
2023/08/12 06:07:53;;;;;;;8.70;5.70;;;;;;;21.77;59.25;100547.05;107745;1259;60348;-65
2023/08/12 06:10:21;;;;;;;8.70;5.70;;;;;;;21.85;58.96;100546.30;107673;1257;60298;-67
2023/08/12 06:12:49;;;;;;;11.60;6.00;;;;;;;21.94;58.80;100542.95;107677;1256;73939;-66
2023/08/12 06:15:16;;;;;;;8.50;5.70;;;;;;;21.94;58.56;100542.88;107620;1256;71630;-68
2023/08/12 06:17:45;;;;;;;8.50;5.30;;;;;;;21.95;58.56;100534.52;107672;1257;71480;-68
2023/08/12 06:20:13;;;;;;;8.80;5.90;;;;;;;22.02;58.48;100531.11;107774;1257;60536;-65
2023/08/12 06:22:41;;;;;;;7.90;5.70;;;;;;;22.08;58.29;100533.23;107798;1256;61207;-65
2023/08/12 06:25:09;;;;;;;7.10;5.60;;;;;;;22.17;58.41;100533.75;107688;1256;73919;-65
2023/08/12 06:27:36;;;;;;;8.00;5.80;;;;;;;22.27;57.62;100536.83;107684;1256;74960;-65
2023/08/12 06:30:06;;;;;;;9.90;6.00;;;;;;;22.32;57.20;100531.79;107514;1258;71775;-66
2023/08/12 06:32:34;;;;;;;7.50;5.70;;;;;;;22.31;56.88;100534.60;107653;1257;61741;-68
2023/08/12 06:35:02;;;;;;;9.00;5.10;;;;;;;22.28;56.94;100531.85;107679;1256;60959;-69
2023/08/12 06:37:30;;;;;;;8.80;5.20;;;;;;;22.24;56.55;100535.86;107716;1256;72508;-65
2023/08/12 06:39:58;;;;;;;9.40;5.10;;;;;;;22.19;56.31;100535.40;107631;1257;71807;-66
2023/08/12 06:42:25;;;;;;;6.90;4.50;;;;;;;22.16;56.74;100534.25;107747;1257;72795;-65
2023/08/12 06:44:56;;;;;;;6.10;4.50;;;;;;;22.11;56.85;100534.45;107547;1257;60172;-67
2023/08/12 06:47:23;;;;;;;9.30;5.30;;;;;;;22.01;56.99;100528.66;107750;1257;60348;-66
2023/08/12 06:49:51;;;;;;;8.90;5.30;;;;;;;22.01;57.57;100533.47;107655;1257;77878;-66
2023/08/12 06:52:18;;;;;;;7.50;4.60;;;;;;;22.06;57.74;100533.81;107518;1256;72972;-67
2023/08/12 06:54:46;;;;;;;7.80;4.90;;;;;;;22.08;57.40;100539.39;107728;1257;72751;-67
2023/08/12 06:57:14;;;;;;;6.10;4.90;;;;;;;22.06;56.94;100543.75;107631;1257;60469;-67
2023/08/12 06:59:42;;;;;;;5.50;4.80;;;;;;;22.05;56.85;100540.83;107678;1257;60345;-65
2023/08/12 07:02:09;;;;;;;7.90;5.10;;;;;;;22.00;56.89;100544.00;107593;1257;72701;-69
2023/08/12 07:04:38;;;;;;;6.70;4.80;;;;;;;21.92;57.14;100546.73;107527;1256;72728;-68
2023/08/12 07:07:06;;;;;;;7.40;4.90;;;;;;;21.85;57.18;100544.07;107590;1258;71593;-68
2023/08/12 07:09:33;;;;;;;8.20;5.10;;;;;;;21.82;57.30;100545.11;107448;1256;61705;-67
2023/08/12 07:12:01;;;;;;;7.10;5.00;;;;;;;21.78;57.54;100547.75;107393;1257;60575;-67
2023/08/12 07:14:29;;;;;;;6.00;4.70;;;;;;;21.84;57.47;100550.86;107948;1256;72644;-68
2023/08/12 07:16:57;;;;;;;7.30;4.90;;;;;;;21.90;57.42;100555.05;107517;1256;71635;-66
2023/08/12 07:19:24;;;;;;;7.50;5.00;;;;;;;21.96;57.67;100556.05;107908;1258;72477;-66
2023/08/12 07:21:52;;;;;;;7.70;5.00;;;;;;;21.98;57.37;100558.70;107426;1259;61864;-66
2023/08/12 07:24:20;;;;;;;6.80;4.30;;;;;;;22.00;57.33;100557.31;107391;1256;60428;-65
2023/08/12 07:26:47;;;;;;;8.40;5.10;;;;;;;22.05;57.12;100557.94;107998;1257;73801;-67
2023/08/12 07:29:15;;;;;;;5.60;4.60;;;;;;;22.10;56.91;100567.08;108394;1257;72883;-67
2023/08/12 07:31:43;;;;;;;6.40;5.00;;;;;;;22.17;56.99;100569.19;107588;1257;72904;-67
2023/08/12 07:34:13;;;;;;;7.40;4.80;;;;;;;22.25;57.01;100561.94;107555;1256;60455;-68
2023/08/12 07:36:46;;;;;;;6.60;4.70;;;;;;;22.31;56.52;100559.80;107702;1256;60296;-66
2023/08/12 07:39:14;;;;;;;7.40;4.60;;;;;;;22.31;56.32;100555.16;107302;1257;73931;-67
2023/08/12 07:41:41;;;;;;;6.00;5.00;;;;;;;22.35;56.49;100550.77;107623;1256;73042;-66
2023/08/12 07:44:09;;;;;;;6.30;4.90;;;;;;;22.39;56.73;100551.55;107552;1256;71546;-64
2023/08/12 07:46:37;;;;;;;8.10;5.20;;;;;;;22.51;56.84;100551.00;107671;1260;60108;-67
2023/08/12 07:49:04;;;;;;;6.80;4.80;;;;;;;22.64;56.25;100555.24;107763;1257;60366;-66
2023/08/12 07:51:32;;;;;;;6.80;5.00;;;;;;;22.73;55.97;100554.75;107587;1256;72255;-67
2023/08/12 07:54:00;;;;;;;6.90;4.70;;;;;;;22.81;55.71;100555.20;107660;1257;72644;-69
2023/08/12 07:56:27;;;;;;;7.20;5.40;;;;;;;22.83;54.99;100554.38;107527;1258;71415;-68
2023/08/12 07:58:55;;;;;;;6.60;5.00;;;;;;;22.82;55.32;100548.23;108354;1257;60506;-67
2023/08/12 08:01:23;;;;;;;5.60;4.70;;;;;;;22.87;55.09;100550.93;107570;1257;61154;-65
2023/08/12 08:03:50;;;;;;;7.60;4.80;;;;;;;22.92;54.66;100553.14;107562;1257;73920;-66
2023/08/12 08:06:18;;;;;;;6.20;5.40;;;;;;;22.91;55.09;100554.83;107604;1258;72855;-67
2023/08/12 08:08:46;;;;;;;8.60;4.80;;;;;;;22.93;55.20;100562.85;107527;1260;72695;-69
2023/08/12 08:11:13;;;;;;;5.60;4.70;;;;;;;23.04;55.05;100557.59;107459;1257;61056;-66
2023/08/12 08:13:41;;;;;;;7.20;4.90;;;;;;;23.19;55.07;100554.95;107425;1258;60295;-68
2023/08/12 08:16:08;;;;;;;7.10;5.20;;;;;;;23.35;54.28;100551.99;107606;1257;73888;-67
2023/08/12 08:18:37;;;;;;;6.50;4.80;;;;;;;23.45;53.95;100550.12;107543;1260;71083;-66
2023/08/12 08:21:04;;;;;;;9.20;5.00;;;;;;;23.56;54.02;100554.96;107466;1257;71490;-66
2023/08/12 08:23:32;;;;;;;6.40;4.30;;;;;;;23.69;53.48;100561.84;107561;1256;60337;-66
2023/08/12 08:26:00;;;;;;;7.10;4.70;;;;;;;23.82;52.79;100557.31;107559;1257;60296;-66
2023/08/12 08:28:28;;;;;;;5.70;4.40;;;;;;;23.90;52.21;100555.73;107268;1257;74036;-65
2023/08/12 08:30:56;;;;;;;6.50;4.30;;;;;;;24.00;52.14;100553.68;107412;1258;72734;-67
2023/08/12 08:33:25;;;;;;;5.20;4.40;;;;;;;24.21;52.17;100546.69;107533;1256;71386;-65
2023/08/12 08:35:56;;;;;;;7.00;4.60;;;;;;;24.42;51.26;100544.49;107589;1257;60489;-66
2023/08/12 08:38:24;;;;;;;6.30;4.30;;;;;;;24.52;50.45;100540.10;107784;1257;60444;-65
2023/08/12 08:40:51;;;;;;;6.00;4.00;;;;;;;24.51;50.14;100536.35;107685;1257;74006;-67
2023/08/12 08:43:22;;;;;;;7.00;4.20;;;;;;;24.50;50.44;100539.14;107538;1260;72031;-66
2023/08/12 08:45:53;;;;;;;6.90;4.10;;;;;;;24.44;50.35;100536.94;107530;1259;71379;-67
2023/08/12 08:48:21;;;;;;;5.30;4.00;;;;;;;24.33;50.41;100535.92;108688;1257;60648;-66
2023/08/12 08:50:48;;;;;;;6.60;3.90;;;;;;;24.30;51.05;100534.83;107626;1257;60336;-67
2023/08/12 08:53:16;;;;;;;6.50;4.20;;;;;;;24.34;51.09;100537.20;107477;1256;74902;-66
2023/08/12 08:55:43;;;;;;;6.20;4.00;;;;;;;24.32;50.51;100534.66;107430;1256;72888;-67
2023/08/12 08:58:11;;;;;;;5.80;4.30;;;;;;;24.31;50.55;100535.80;107498;1258;72175;-65
2023/08/12 09:00:41;;;;;;;5.10;4.20;;;;;;;24.32;50.86;100539.80;107584;1257;61215;-66
2023/08/12 09:03:11;;;;;;;7.70;4.40;;;;;;;24.29;50.72;100545.55;107816;1257;61240;-67
2023/08/12 09:05:38;;;;;;;6.00;4.20;;;;;;;24.23;50.97;100542.59;107551;1257;73351;-66
2023/08/12 09:08:07;;;;;;;5.20;3.90;;;;;;;24.19;50.94;100541.40;107334;1265;73320;-66
2023/08/12 09:10:35;;;;;;;5.70;4.80;;;;;;;24.20;51.27;100545.30;107567;1260;71412;-67
2023/08/12 09:13:03;;;;;;;7.00;4.10;;;;;;;24.26;51.75;100544.87;107588;1258;61131;-66
2023/08/12 09:15:30;;;;;;;6.70;4.40;;;;;;;24.35;51.46;100540.49;107542;1257;61066;-66
2023/08/12 09:17:58;;;;;;;7.20;3.60;;;;;;;24.44;51.44;100545.42;107575;1257;74596;-67
2023/08/12 09:20:26;;;;;;;4.80;3.40;;;;;;;24.49;49.99;100551.02;107780;1257;72926;-67
2023/08/12 09:22:58;;;;;;;4.40;3.50;;;;;;;24.46;48.53;100546.83;107718;1256;73159;-65
2023/08/12 09:25:29;;;;;;;6.60;3.20;;;;;;;24.45;48.40;100559.35;107667;1257;61220;-66
2023/08/12 09:28:00;;;;;;;5.30;3.30;;;;;;;24.43;47.66;100556.39;107465;1257;61078;-65
2023/08/12 09:30:29;;;;;;;5.40;3.10;;;;;;;24.35;46.54;100568.80;107776;1257;73454;-65
2023/08/12 09:33:02;;;;;;;6.60;3.40;;;;;;;24.29;46.66;100568.03;107593;1257;72874;-68
2023/08/12 09:35:35;;;;;;;6.50;3.50;;;;;;;24.31;47.47;100565.98;107709;1257;72459;-67
2023/08/12 09:38:04;;;;;;;8.30;4.10;;;;;;;24.36;47.82;100559.48;107486;1260;61289;-66
2023/08/12 09:40:33;;;;;;;5.30;3.60;;;;;;;24.39;47.54;100560.48;107771;1257;61492;-65
2023/08/12 09:43:01;;;;;;;4.40;3.20;;;;;;;24.41;47.39;100559.40;107619;1260;74683;-66
2023/08/12 09:45:30;;;;;;;5.40;3.60;;;;;;;24.36;47.90;100563.70;107605;1257;71381;-65
2023/08/12 09:47:58;;;;;;;6.50;3.50;;;;;;;24.35;48.13;100561.40;107658;1257;74949;-64
2023/08/12 09:50:26;;;;;;;5.60;3.50;;;;;;;24.36;48.02;100567.27;107601;1256;61218;-67
2023/08/12 09:52:55;;;;;;;5.20;3.40;;;;;;;24.37;48.06;100561.84;107538;1258;59863;-67
2023/08/12 09:55:23;;;;;;;6.50;3.80;;;;;;;24.45;47.96;100564.33;107627;1260;76264;-67
2023/08/12 09:57:52;;;;;;;4.90;3.60;;;;;;;24.50;47.55;100559.31;107495;1256;71705;-67
2023/08/12 10:00:21;;;;;;;5.60;3.80;;;;;;;24.58;47.51;100558.42;107594;1259;72759;-69
2023/08/12 10:02:51;;;;;;;6.30;4.00;;;;;;;24.73;47.66;100555.67;107597;1256;61134;-68
2023/08/12 10:05:30;;;;;;;5.30;3.90;;;;;;;24.87;46.68;100554.39;107533;1262;60675;-66
2023/08/12 10:07:58;;;;;;;5.00;3.80;;;;;;;24.94;46.25;100554.31;107544;1261;74699;-67
2023/08/12 10:10:26;;;;;;;5.50;3.50;;;;;;;25.07;46.31;100548.61;107519;1256;71618;-67
2023/08/12 10:12:53;;;;;;;6.70;3.60;;;;;;;25.35;46.47;100551.77;107374;1260;71260;-68
2023/08/12 10:15:22;;;;;;;5.50;3.70;;;;;;;25.68;45.69;100553.02;107628;1257;60360;-66
2023/08/12 10:17:51;;;;;;;5.30;3.60;;;;;;;25.87;44.32;100541.45;107814;1256;61327;-66
2023/08/12 10:20:23;;;;;;;5.70;3.30;;;;;;;25.98;44.56;100535.66;107778;1256;73423;-66
2023/08/12 10:22:52;;;;;;;4.50;3.80;;;;;;;26.17;44.26;100533.75;107434;1257;72616;-67
2023/08/12 10:25:22;;;;;;;5.40;3.20;;;;;;;26.36;43.94;100532.36;107531;1262;71769;-64
2023/08/12 10:27:50;;;;;;;6.20;3.60;;;;;;;26.49;41.93;100532.60;107641;1257;61257;-66
2023/08/12 10:30:20;;;;;;;5.00;3.60;;;;;;;26.51;41.19;100540.63;107590;1259;61125;-68
2023/08/12 10:32:48;;;;;;;5.10;3.60;;;;;;;26.49;41.72;100537.29;107556;1257;73359;-67
2023/08/12 10:35:16;;;;;;;5.60;3.00;;;;;;;26.51;42.10;100531.95;107334;1260;71259;-68
2023/08/12 10:37:48;;;;;;;6.70;3.10;;;;;;;26.54;41.13;100534.96;107364;1259;72774;-66
2023/08/12 10:40:21;;;;;;;4.80;3.30;;;;;;;26.54;40.47;100535.73;107552;1258;61261;-68
2023/08/12 10:42:49;;;;;;;6.00;3.30;;;;;;;26.49;39.95;100539.11;107873;1256;62270;-65
2023/08/12 10:45:17;;;;;;;5.50;3.50;;;;;;;26.41;40.10;100540.19;107539;1257;74756;-67
2023/08/12 10:48:09;;;;;;;5.30;3.10;;;;;;;26.40;40.54;100539.87;107656;1260;72523;-67
2023/08/12 10:50:37;;;;;;;;;;;;;;;26.50;40.75;100541.24;107689;1257;71405;-67
2023/08/12 10:53:37;;;;;;;5.80;3.10;;;;;;;26.54;39.88;100555.63;107641;1257;61159;-68
2023/08/12 10:56:08;;;;;;;6.70;3.40;;;;;;;26.48;39.60;100544.63;107347;1257;61098;-66
2023/08/12 10:58:47;;;;;;;5.60;3.50;;;;;;;26.40;40.00;100547.30;107537;1256;74860;-68
2023/08/12 11:01:18;;;;;;;5.40;3.30;;;;;;;26.37;39.97;100548.11;107486;1256;72667;-65
2023/08/12 11:03:47;;;;;;;5.50;3.20;;;;;;;26.36;40.14;100550.89;107651;1257;70366;-66
2023/08/12 11:06:15;;;;;;;6.50;3.10;;;;;;;26.33;40.45;100550.70;107436;1257;60961;-67
2023/08/12 11:09:01;;;;;;;6.10;3.60;;;;;;;26.34;40.25;100546.33;107604;1257;61098;-67
2023/08/12 11:11:29;;;;;;;8.40;3.20;;;;;;;26.38;40.08;100550.70;107671;1258;73845;-67
2023/08/12 11:13:57;;;;;;;6.90;3.30;;;;;;;26.41;40.04;100550.45;107662;1256;72872;-66
2023/08/12 11:16:37;;;;;;;4.30;3.30;;;;;;;26.46;39.96;100554.92;107627;1259;71211;-66
2023/08/12 11:19:05;;;;;;;7.50;3.30;;;;;;;26.51;39.62;100554.02;107341;1257;61253;-67
2023/08/12 11:21:35;;;;;;;5.70;3.40;;;;;;;26.56;39.41;100556.45;107396;1257;61096;-66
2023/08/12 11:24:04;;;;;;;6.00;3.50;;;;;;;26.61;39.20;100557.38;107353;1256;74678;-67